sensor_id;sensor_type;location;lat;lon;timestamp;temperature;humidity
21502;DHT22;27639;48.674;9.242;2022-07-18T00:01:25;23.80;35.60
21502;DHT22;27639;48.674;9.242;2022-07-18T00:03:50;23.70;35.90
21502;DHT22;27639;48.674;9.242;2022-07-18T00:06:16;23.60;36.20
21502;DHT22;27639;48.674;9.242;2022-07-18T00:08:41;23.50;36.20
21502;DHT22;27639;48.674;9.242;2022-07-18T00:11:07;23.50;35.90
21502;DHT22;27639;48.674;9.242;2022-07-18T00:13:32;23.40;35.80
21502;DHT22;27639;48.674;9.242;2022-07-18T00:15:58;23.40;36.10
21502;DHT22;27639;48.674;9.242;2022-07-18T00:18:24;23.40;36.20
21502;DHT22;27639;48.674;9.242;2022-07-18T00:20:49;23.30;36.40
21502;DHT22;27639;48.674;9.242;2022-07-18T00:23:15;23.30;36.60
21502;DHT22;27639;48.674;9.242;2022-07-18T00:25:40;23.30;36.90
21502;DHT22;27639;48.674;9.242;2022-07-18T00:28:06;23.10;37.00
21502;DHT22;27639;48.674;9.242;2022-07-18T00:30:31;23.10;37.20
21502;DHT22;27639;48.674;9.242;2022-07-18T00:32:57;23.10;37.50
21502;DHT22;27639;48.674;9.242;2022-07-18T00:35:23;23.00;37.40
21502;DHT22;27639;48.674;9.242;2022-07-18T00:37:48;23.00;37.60
21502;DHT22;27639;48.674;9.242;2022-07-18T00:40:14;23.00;37.70
21502;DHT22;27639;48.674;9.242;2022-07-18T00:42:39;22.90;37.70
21502;DHT22;27639;48.674;9.242;2022-07-18T00:45:05;22.90;37.80
21502;DHT22;27639;48.674;9.242;2022-07-18T00:47:31;22.80;38.10
21502;DHT22;27639;48.674;9.242;2022-07-18T00:49:57;22.70;38.30
21502;DHT22;27639;48.674;9.242;2022-07-18T00:52:22;22.60;38.50
21502;DHT22;27639;48.674;9.242;2022-07-18T00:54:48;22.50;38.70
21502;DHT22;27639;48.674;9.242;2022-07-18T00:57:14;22.50;38.90
21502;DHT22;27639;48.674;9.242;2022-07-18T00:59:40;22.40;39.10
21502;DHT22;27639;48.674;9.242;2022-07-18T01:02:25;22.50;39.40
21502;DHT22;27639;48.674;9.242;2022-07-18T01:04:52;22.30;39.20
21502;DHT22;27639;48.674;9.242;2022-07-18T01:07:17;22.40;39.40
21502;DHT22;27639;48.674;9.242;2022-07-18T01:09:43;22.30;39.30
21502;DHT22;27639;48.674;9.242;2022-07-18T01:12:09;22.40;39.30
21502;DHT22;27639;48.674;9.242;2022-07-18T01:14:35;22.30;39.00
21502;DHT22;27639;48.674;9.242;2022-07-18T01:17:01;22.30;39.20
21502;DHT22;27639;48.674;9.242;2022-07-18T01:19:26;22.30;39.20
21502;DHT22;27639;48.674;9.242;2022-07-18T01:21:52;22.30;39.30
21502;DHT22;27639;48.674;9.242;2022-07-18T01:24:17;22.30;39.30
21502;DHT22;27639;48.674;9.242;2022-07-18T01:26:43;22.20;40.10
21502;DHT22;27639;48.674;9.242;2022-07-18T01:29:09;22.10;39.60
21502;DHT22;27639;48.674;9.242;2022-07-18T01:31:34;22.10;39.80
21502;DHT22;27639;48.674;9.242;2022-07-18T01:34:01;21.90;39.70
21502;DHT22;27639;48.674;9.242;2022-07-18T01:36:27;21.90;40.00
21502;DHT22;27639;48.674;9.242;2022-07-18T01:38:52;21.80;40.10
21502;DHT22;27639;48.674;9.242;2022-07-18T01:41:18;21.80;40.30
21502;DHT22;27639;48.674;9.242;2022-07-18T01:43:43;21.70;40.40
21502;DHT22;27639;48.674;9.242;2022-07-18T01:46:11;21.70;40.60
21502;DHT22;27639;48.674;9.242;2022-07-18T01:48:41;21.70;40.60
21502;DHT22;27639;48.674;9.242;2022-07-18T01:51:07;21.60;40.60
21502;DHT22;27639;48.674;9.242;2022-07-18T01:53:40;21.60;40.50
21502;DHT22;27639;48.674;9.242;2022-07-18T01:56:07;21.70;40.50
21502;DHT22;27639;48.674;9.242;2022-07-18T01:58:33;21.60;40.30
21502;DHT22;27639;48.674;9.242;2022-07-18T02:00:58;21.60;40.40
21502;DHT22;27639;48.674;9.242;2022-07-18T02:03:24;21.60;40.70
21502;DHT22;27639;48.674;9.242;2022-07-18T02:05:49;21.60;40.80
21502;DHT22;27639;48.674;9.242;2022-07-18T02:08:15;21.50;40.90
21502;DHT22;27639;48.674;9.242;2022-07-18T02:10:41;21.60;41.10
21502;DHT22;27639;48.674;9.242;2022-07-18T02:13:06;21.60;41.10
21502;DHT22;27639;48.674;9.242;2022-07-18T02:15:32;21.60;41.90
21502;DHT22;27639;48.674;9.242;2022-07-18T02:17:57;21.50;41.20
21502;DHT22;27639;48.674;9.242;2022-07-18T02:20:24;21.50;41.20
21502;DHT22;27639;48.674;9.242;2022-07-18T02:22:49;21.40;41.40
21502;DHT22;27639;48.674;9.242;2022-07-18T02:25:15;21.30;41.30
21502;DHT22;27639;48.674;9.242;2022-07-18T02:27:41;21.30;41.40
21502;DHT22;27639;48.674;9.242;2022-07-18T02:30:08;21.30;41.40
21502;DHT22;27639;48.674;9.242;2022-07-18T02:32:34;21.20;41.30
21502;DHT22;27639;48.674;9.242;2022-07-18T02:35:03;21.20;41.20
21502;DHT22;27639;48.674;9.242;2022-07-18T02:37:29;21.20;41.20
21502;DHT22;27639;48.674;9.242;2022-07-18T02:39:55;21.20;41.50
21502;DHT22;27639;48.674;9.242;2022-07-18T02:42:20;21.10;41.60
21502;DHT22;27639;48.674;9.242;2022-07-18T02:44:46;21.00;41.60
21502;DHT22;27639;48.674;9.242;2022-07-18T02:47:11;21.00;41.60
21502;DHT22;27639;48.674;9.242;2022-07-18T02:49:37;20.90;41.70
21502;DHT22;27639;48.674;9.242;2022-07-18T02:52:06;20.90;41.70
21502;DHT22;27639;48.674;9.242;2022-07-18T02:54:34;20.80;41.00
21502;DHT22;27639;48.674;9.242;2022-07-18T02:57:00;20.80;41.80
21502;DHT22;27639;48.674;9.242;2022-07-18T02:59:26;20.70;41.80
21502;DHT22;27639;48.674;9.242;2022-07-18T03:01:52;20.60;41.90
21502;DHT22;27639;48.674;9.242;2022-07-18T03:04:19;20.60;42.00
21502;DHT22;27639;48.674;9.242;2022-07-18T03:06:46;20.60;42.10
21502;DHT22;27639;48.674;9.242;2022-07-18T03:09:12;20.50;42.20
21502;DHT22;27639;48.674;9.242;2022-07-18T03:11:38;20.50;42.10
21502;DHT22;27639;48.674;9.242;2022-07-18T03:14:03;20.60;42.20
21502;DHT22;27639;48.674;9.242;2022-07-18T03:16:29;20.50;42.20
21502;DHT22;27639;48.674;9.242;2022-07-18T03:18:54;20.50;42.30
21502;DHT22;27639;48.674;9.242;2022-07-18T03:21:20;20.50;42.40
21502;DHT22;27639;48.674;9.242;2022-07-18T03:23:46;20.50;42.50
21502;DHT22;27639;48.674;9.242;2022-07-18T03:26:11;20.40;42.60
21502;DHT22;27639;48.674;9.242;2022-07-18T03:28:37;20.40;42.70
21502;DHT22;27639;48.674;9.242;2022-07-18T03:31:02;20.30;42.70
21502;DHT22;27639;48.674;9.242;2022-07-18T03:33:29;20.40;42.80
21502;DHT22;27639;48.674;9.242;2022-07-18T03:35:55;20.40;43.00
21502;DHT22;27639;48.674;9.242;2022-07-18T03:38:20;20.40;43.00
21502;DHT22;27639;48.674;9.242;2022-07-18T03:40:46;20.40;43.00
21502;DHT22;27639;48.674;9.242;2022-07-18T03:43:12;20.30;43.60
21502;DHT22;27639;48.674;9.242;2022-07-18T03:45:37;20.30;42.90
21502;DHT22;27639;48.674;9.242;2022-07-18T03:48:03;20.30;42.90
21502;DHT22;27639;48.674;9.242;2022-07-18T03:50:29;20.30;43.00
21502;DHT22;27639;48.674;9.242;2022-07-18T03:52:54;20.30;43.10
21502;DHT22;27639;48.674;9.242;2022-07-18T03:55:20;20.30;43.30
21502;DHT22;27639;48.674;9.242;2022-07-18T03:57:46;20.20;43.30
21502;DHT22;27639;48.674;9.242;2022-07-18T04:00:13;20.20;43.40
21502;DHT22;27639;48.674;9.242;2022-07-18T04:02:40;20.10;43.40
21502;DHT22;27639;48.674;9.242;2022-07-18T04:05:06;20.10;43.40
21502;DHT22;27639;48.674;9.242;2022-07-18T04:07:32;20.10;43.50
21502;DHT22;27639;48.674;9.242;2022-07-18T04:09:57;20.10;43.40
21502;DHT22;27639;48.674;9.242;2022-07-18T04:12:23;20.20;43.40
21502;DHT22;27639;48.674;9.242;2022-07-18T04:14:48;20.10;43.40
21502;DHT22;27639;48.674;9.242;2022-07-18T04:17:14;20.10;43.30
21502;DHT22;27639;48.674;9.242;2022-07-18T04:19:39;20.10;43.40
21502;DHT22;27639;48.674;9.242;2022-07-18T04:22:05;20.10;43.40
21502;DHT22;27639;48.674;9.242;2022-07-18T04:24:31;20.10;43.40
21502;DHT22;27639;48.674;9.242;2022-07-18T04:26:56;20.10;43.40
21502;DHT22;27639;48.674;9.242;2022-07-18T04:29:22;20.10;43.90
21502;DHT22;27639;48.674;9.242;2022-07-18T04:31:47;20.10;44.10
21502;DHT22;27639;48.674;9.242;2022-07-18T04:34:13;20.10;44.20
21502;DHT22;27639;48.674;9.242;2022-07-18T04:36:38;20.10;44.60
21502;DHT22;27639;48.674;9.242;2022-07-18T04:39:04;20.10;44.80
21502;DHT22;27639;48.674;9.242;2022-07-18T04:41:30;20.20;45.10
21502;DHT22;27639;48.674;9.242;2022-07-18T04:43:55;20.30;44.90
21502;DHT22;27639;48.674;9.242;2022-07-18T04:46:21;20.40;44.80
21502;DHT22;27639;48.674;9.242;2022-07-18T04:48:46;20.50;44.80
21502;DHT22;27639;48.674;9.242;2022-07-18T04:51:12;20.50;44.80
21502;DHT22;27639;48.674;9.242;2022-07-18T04:53:37;20.70;44.80
21502;DHT22;27639;48.674;9.242;2022-07-18T04:56:04;20.90;44.30
21502;DHT22;27639;48.674;9.242;2022-07-18T04:58:30;21.00;44.20
21502;DHT22;27639;48.674;9.242;2022-07-18T05:00:55;21.10;44.20
21502;DHT22;27639;48.674;9.242;2022-07-18T05:03:21;21.10;44.10
21502;DHT22;27639;48.674;9.242;2022-07-18T05:05:47;21.20;44.30
21502;DHT22;27639;48.674;9.242;2022-07-18T05:08:12;21.30;44.30
21502;DHT22;27639;48.674;9.242;2022-07-18T05:10:39;21.40;44.20
21502;DHT22;27639;48.674;9.242;2022-07-18T05:13:05;21.50;44.10
21502;DHT22;27639;48.674;9.242;2022-07-18T05:15:31;21.70;44.10
21502;DHT22;27639;48.674;9.242;2022-07-18T05:17:57;21.70;44.00
21502;DHT22;27639;48.674;9.242;2022-07-18T05:20:24;21.80;43.90
21502;DHT22;27639;48.674;9.242;2022-07-18T05:22:51;21.80;44.50
21502;DHT22;27639;48.674;9.242;2022-07-18T05:25:17;21.90;43.70
21502;DHT22;27639;48.674;9.242;2022-07-18T05:27:43;21.90;43.80
21502;DHT22;27639;48.674;9.242;2022-07-18T05:30:11;22.00;43.90
21502;DHT22;27639;48.674;9.242;2022-07-18T05:32:41;22.10;43.90
21502;DHT22;27639;48.674;9.242;2022-07-18T05:35:08;22.30;43.90
21502;DHT22;27639;48.674;9.242;2022-07-18T05:37:35;22.50;44.00
21502;DHT22;27639;48.674;9.242;2022-07-18T05:40:03;22.60;43.80
21502;DHT22;27639;48.674;9.242;2022-07-18T05:42:29;22.70;43.60
21502;DHT22;27639;48.674;9.242;2022-07-18T05:44:55;22.90;43.30
21502;DHT22;27639;48.674;9.242;2022-07-18T05:47:20;23.00;43.20
21502;DHT22;27639;48.674;9.242;2022-07-18T05:49:46;23.10;43.10
21502;DHT22;27639;48.674;9.242;2022-07-18T05:52:11;23.20;43.00
21502;DHT22;27639;48.674;9.242;2022-07-18T05:54:37;23.20;43.00
21502;DHT22;27639;48.674;9.242;2022-07-18T05:57:02;23.30;43.00
21502;DHT22;27639;48.674;9.242;2022-07-18T05:59:28;23.40;43.00
21502;DHT22;27639;48.674;9.242;2022-07-18T06:01:54;23.40;42.70
21502;DHT22;27639;48.674;9.242;2022-07-18T06:04:19;23.50;42.50
21502;DHT22;27639;48.674;9.242;2022-07-18T06:06:45;23.60;42.60
21502;DHT22;27639;48.674;9.242;2022-07-18T06:09:13;23.80;42.50
21502;DHT22;27639;48.674;9.242;2022-07-18T06:11:39;24.00;42.40
21502;DHT22;27639;48.674;9.242;2022-07-18T06:14:05;24.10;42.00
21502;DHT22;27639;48.674;9.242;2022-07-18T06:16:31;24.20;42.00
21502;DHT22;27639;48.674;9.242;2022-07-18T06:18:57;24.30;41.80
21502;DHT22;27639;48.674;9.242;2022-07-18T06:23:56;24.40;41.70
21502;DHT22;27639;48.674;9.242;2022-07-18T06:26:22;24.40;41.70
21502;DHT22;27639;48.674;9.242;2022-07-18T06:28:48;24.40;41.50
21502;DHT22;27639;48.674;9.242;2022-07-18T06:31:14;24.50;41.50
21502;DHT22;27639;48.674;9.242;2022-07-18T06:33:43;24.60;41.40
21502;DHT22;27639;48.674;9.242;2022-07-18T06:36:09;24.70;41.40
21502;DHT22;27639;48.674;9.242;2022-07-18T06:38:38;24.70;41.30
21502;DHT22;27639;48.674;9.242;2022-07-18T06:41:04;24.80;41.40
21502;DHT22;27639;48.674;9.242;2022-07-18T06:43:30;24.90;41.00
21502;DHT22;27639;48.674;9.242;2022-07-18T06:45:56;25.00;40.80
21502;DHT22;27639;48.674;9.242;2022-07-18T06:48:23;25.00;40.70
21502;DHT22;27639;48.674;9.242;2022-07-18T06:50:49;25.00;41.00
21502;DHT22;27639;48.674;9.242;2022-07-18T06:53:14;25.00;41.00
21502;DHT22;27639;48.674;9.242;2022-07-18T06:55:40;25.00;40.80
21502;DHT22;27639;48.674;9.242;2022-07-18T06:58:06;25.00;40.30
21502;DHT22;27639;48.674;9.242;2022-07-18T07:00:31;25.00;40.40
21502;DHT22;27639;48.674;9.242;2022-07-18T07:02:57;25.10;40.80
21502;DHT22;27639;48.674;9.242;2022-07-18T07:05:22;25.30;40.30
21502;DHT22;27639;48.674;9.242;2022-07-18T07:07:48;25.50;39.80
21502;DHT22;27639;48.674;9.242;2022-07-18T07:10:16;25.50;39.30
21502;DHT22;27639;48.674;9.242;2022-07-18T07:12:50;25.60;39.50
21502;DHT22;27639;48.674;9.242;2022-07-18T07:15:19;25.80;39.40
21502;DHT22;27639;48.674;9.242;2022-07-18T07:17:45;26.00;38.80
21502;DHT22;27639;48.674;9.242;2022-07-18T07:20:11;26.10;38.30
21502;DHT22;27639;48.674;9.242;2022-07-18T07:22:45;26.20;37.80
21502;DHT22;27639;48.674;9.242;2022-07-18T07:25:11;26.20;37.60
21502;DHT22;27639;48.674;9.242;2022-07-18T07:27:37;26.20;37.80
21502;DHT22;27639;48.674;9.242;2022-07-18T07:30:04;26.30;37.20
21502;DHT22;27639;48.674;9.242;2022-07-18T07:32:37;26.40;36.80
21502;DHT22;27639;48.674;9.242;2022-07-18T07:35:06;26.50;36.80
21502;DHT22;27639;48.674;9.242;2022-07-18T07:37:35;26.60;36.30
21502;DHT22;27639;48.674;9.242;2022-07-18T07:40:00;26.60;36.00
21502;DHT22;27639;48.674;9.242;2022-07-18T07:42:26;26.70;35.80
21502;DHT22;27639;48.674;9.242;2022-07-18T07:44:52;26.80;35.80
21502;DHT22;27639;48.674;9.242;2022-07-18T07:47:17;26.90;35.70
21502;DHT22;27639;48.674;9.242;2022-07-18T07:49:43;27.00;35.60
21502;DHT22;27639;48.674;9.242;2022-07-18T07:52:08;27.20;35.60
21502;DHT22;27639;48.674;9.242;2022-07-18T07:54:37;27.20;35.60
21502;DHT22;27639;48.674;9.242;2022-07-18T07:57:03;27.40;35.30
21502;DHT22;27639;48.674;9.242;2022-07-18T07:59:28;27.50;35.10
21502;DHT22;27639;48.674;9.242;2022-07-18T08:01:55;27.70;34.60
21502;DHT22;27639;48.674;9.242;2022-07-18T08:04:21;27.90;34.40
21502;DHT22;27639;48.674;9.242;2022-07-18T08:06:46;27.90;34.10
21502;DHT22;27639;48.674;9.242;2022-07-18T08:09:12;28.00;34.10
21502;DHT22;27639;48.674;9.242;2022-07-18T08:11:38;28.10;34.00
21502;DHT22;27639;48.674;9.242;2022-07-18T08:14:04;28.10;33.70
21502;DHT22;27639;48.674;9.242;2022-07-18T08:16:29;28.20;33.90
21502;DHT22;27639;48.674;9.242;2022-07-18T08:18:55;28.30;33.60
21502;DHT22;27639;48.674;9.242;2022-07-18T08:21:21;28.50;33.70
21502;DHT22;27639;48.674;9.242;2022-07-18T08:23:46;28.50;33.70
21502;DHT22;27639;48.674;9.242;2022-07-18T08:26:13;28.50;33.70
21502;DHT22;27639;48.674;9.242;2022-07-18T08:28:39;28.50;33.40
21502;DHT22;27639;48.674;9.242;2022-07-18T08:31:05;28.60;33.60
21502;DHT22;27639;48.674;9.242;2022-07-18T08:33:30;28.70;33.40
21502;DHT22;27639;48.674;9.242;2022-07-18T08:35:56;28.80;32.90
21502;DHT22;27639;48.674;9.242;2022-07-18T08:38:22;29.00;32.80
21502;DHT22;27639;48.674;9.242;2022-07-18T08:40:48;29.00;32.70
21502;DHT22;27639;48.674;9.242;2022-07-18T08:43:14;29.10;32.50
21502;DHT22;27639;48.674;9.242;2022-07-18T08:45:42;29.20;32.20
21502;DHT22;27639;48.674;9.242;2022-07-18T08:48:08;29.30;31.50
21502;DHT22;27639;48.674;9.242;2022-07-18T08:50:34;29.20;31.80
21502;DHT22;27639;48.674;9.242;2022-07-18T08:53:00;29.30;31.60
21502;DHT22;27639;48.674;9.242;2022-07-18T08:55:26;29.30;31.40
21502;DHT22;27639;48.674;9.242;2022-07-18T08:57:53;29.40;31.50
21502;DHT22;27639;48.674;9.242;2022-07-18T09:00:19;29.50;31.60
21502;DHT22;27639;48.674;9.242;2022-07-18T09:02:46;29.70;31.10
21502;DHT22;27639;48.674;9.242;2022-07-18T09:05:19;29.80;30.90
21502;DHT22;27639;48.674;9.242;2022-07-18T09:07:45;29.90;30.00
21502;DHT22;27639;48.674;9.242;2022-07-18T09:10:11;29.90;30.30
21502;DHT22;27639;48.674;9.242;2022-07-18T09:12:36;30.00;30.10
21502;DHT22;27639;48.674;9.242;2022-07-18T09:15:09;30.10;29.90
21502;DHT22;27639;48.674;9.242;2022-07-18T09:17:36;30.20;29.90
21502;DHT22;27639;48.674;9.242;2022-07-18T09:20:10;30.40;29.70
21502;DHT22;27639;48.674;9.242;2022-07-18T09:22:41;30.40;29.70
21502;DHT22;27639;48.674;9.242;2022-07-18T09:25:15;30.50;29.30
21502;DHT22;27639;48.674;9.242;2022-07-18T09:27:48;30.60;29.30
21502;DHT22;27639;48.674;9.242;2022-07-18T09:30:18;30.70;29.60
21502;DHT22;27639;48.674;9.242;2022-07-18T09:32:50;30.80;29.80
21502;DHT22;27639;48.674;9.242;2022-07-18T09:35:22;30.80;29.40
21502;DHT22;27639;48.674;9.242;2022-07-18T09:40:30;31.10;29.50
21502;DHT22;27639;48.674;9.242;2022-07-18T09:42:58;31.10;29.60
21502;DHT22;27639;48.674;9.242;2022-07-18T09:45:29;31.20;29.40
21502;DHT22;27639;48.674;9.242;2022-07-18T09:48:00;31.20;29.30
21502;DHT22;27639;48.674;9.242;2022-07-18T09:50:31;31.30;29.10
21502;DHT22;27639;48.674;9.242;2022-07-18T09:53:10;31.40;29.20
21502;DHT22;27639;48.674;9.242;2022-07-18T09:58:56;31.60;28.80
21502;DHT22;27639;48.674;9.242;2022-07-18T10:01:23;31.60;28.90
21502;DHT22;27639;48.674;9.242;2022-07-18T10:03:49;31.50;29.10
21502;DHT22;27639;48.674;9.242;2022-07-18T10:06:17;31.60;28.80
21502;DHT22;27639;48.674;9.242;2022-07-18T10:08:43;31.60;28.60
21502;DHT22;27639;48.674;9.242;2022-07-18T10:11:09;31.80;28.20
21502;DHT22;27639;48.674;9.242;2022-07-18T10:13:37;31.90;28.00
21502;DHT22;27639;48.674;9.242;2022-07-18T10:16:03;32.10;27.70
21502;DHT22;27639;48.674;9.242;2022-07-18T10:18:32;32.10;27.20
21502;DHT22;27639;48.674;9.242;2022-07-18T10:21:13;32.10;26.50
21502;DHT22;27639;48.674;9.242;2022-07-18T10:23:44;32.10;26.50
21502;DHT22;27639;48.674;9.242;2022-07-18T10:34:08;32.10;26.70
21502;DHT22;27639;48.674;9.242;2022-07-18T10:39:19;32.20;25.30
21502;DHT22;27639;48.674;9.242;2022-07-18T11:00:37;32.30;25.70
21502;DHT22;27639;48.674;9.242;2022-07-18T11:03:05;32.40;25.70
21502;DHT22;27639;48.674;9.242;2022-07-18T11:16:13;32.90;25.10
21502;DHT22;27639;48.674;9.242;2022-07-18T11:23:47;32.80;25.30
21502;DHT22;27639;48.674;9.242;2022-07-18T11:26:17;32.90;25.30
21502;DHT22;27639;48.674;9.242;2022-07-18T11:28:43;32.90;25.30
21502;DHT22;27639;48.674;9.242;2022-07-18T11:31:12;32.90;25.40
21502;DHT22;27639;48.674;9.242;2022-07-18T11:33:40;33.00;25.60
21502;DHT22;27639;48.674;9.242;2022-07-18T11:36:11;33.10;25.50
21502;DHT22;27639;48.674;9.242;2022-07-18T11:38:39;33.10;25.50
21502;DHT22;27639;48.674;9.242;2022-07-18T11:41:05;33.20;25.00
21502;DHT22;27639;48.674;9.242;2022-07-18T11:43:31;33.20;24.80
21502;DHT22;27639;48.674;9.242;2022-07-18T11:46:00;33.20;24.80
21502;DHT22;27639;48.674;9.242;2022-07-18T11:48:26;33.20;24.80
21502;DHT22;27639;48.674;9.242;2022-07-18T11:50:52;33.20;25.20
21502;DHT22;27639;48.674;9.242;2022-07-18T11:53:17;33.20;24.50
21502;DHT22;27639;48.674;9.242;2022-07-18T11:55:43;33.20;24.90
21502;DHT22;27639;48.674;9.242;2022-07-18T11:58:11;33.20;24.50
21502;DHT22;27639;48.674;9.242;2022-07-18T12:00:37;33.30;24.60
21502;DHT22;27639;48.674;9.242;2022-07-18T12:03:05;33.30;24.40
21502;DHT22;27639;48.674;9.242;2022-07-18T12:05:39;33.40;24.20
21502;DHT22;27639;48.674;9.242;2022-07-18T12:11:27;33.50;23.90
21502;DHT22;27639;48.674;9.242;2022-07-18T12:14:01;33.40;23.30
21502;DHT22;27639;48.674;9.242;2022-07-18T12:19:08;33.40;23.30
21502;DHT22;27639;48.674;9.242;2022-07-18T12:35:26;33.60;22.80
21502;DHT22;27639;48.674;9.242;2022-07-18T12:38:03;33.60;23.00
21502;DHT22;27639;48.674;9.242;2022-07-18T12:40:52;33.60;22.90
21502;DHT22;27639;48.674;9.242;2022-07-18T12:43:32;33.60;23.30
21502;DHT22;27639;48.674;9.242;2022-07-18T12:46:00;33.70;23.10
21502;DHT22;27639;48.674;9.242;2022-07-18T12:48:27;33.70;22.50
21502;DHT22;27639;48.674;9.242;2022-07-18T12:50:58;33.70;23.00
21502;DHT22;27639;48.674;9.242;2022-07-18T12:53:24;33.70;23.50
21502;DHT22;27639;48.674;9.242;2022-07-18T12:55:50;33.80;23.60
21502;DHT22;27639;48.674;9.242;2022-07-18T12:58:16;33.80;24.00
21502;DHT22;27639;48.674;9.242;2022-07-18T13:00:42;33.90;23.90
21502;DHT22;27639;48.674;9.242;2022-07-18T13:03:09;34.00;23.50
21502;DHT22;27639;48.674;9.242;2022-07-18T13:05:35;34.20;23.60
21502;DHT22;27639;48.674;9.242;2022-07-18T13:08:01;34.20;23.60
21502;DHT22;27639;48.674;9.242;2022-07-18T13:10:26;34.30;23.80
21502;DHT22;27639;48.674;9.242;2022-07-18T13:12:52;34.30;23.20
21502;DHT22;27639;48.674;9.242;2022-07-18T13:15:18;34.30;23.00
21502;DHT22;27639;48.674;9.242;2022-07-18T13:17:46;34.20;22.90
21502;DHT22;27639;48.674;9.242;2022-07-18T13:20:15;34.20;22.90
21502;DHT22;27639;48.674;9.242;2022-07-18T13:22:40;34.20;23.40
21502;DHT22;27639;48.674;9.242;2022-07-18T13:25:08;34.20;23.50
21502;DHT22;27639;48.674;9.242;2022-07-18T13:27:35;34.20;24.20
21502;DHT22;27639;48.674;9.242;2022-07-18T13:30:02;34.20;24.00
21502;DHT22;27639;48.674;9.242;2022-07-18T13:32:28;34.30;23.70
21502;DHT22;27639;48.674;9.242;2022-07-18T13:34:55;34.30;23.60
21502;DHT22;27639;48.674;9.242;2022-07-18T13:37:21;34.30;23.50
21502;DHT22;27639;48.674;9.242;2022-07-18T13:39:46;34.40;23.70
21502;DHT22;27639;48.674;9.242;2022-07-18T13:42:12;34.40;23.60
21502;DHT22;27639;48.674;9.242;2022-07-18T13:44:37;34.50;23.60
21502;DHT22;27639;48.674;9.242;2022-07-18T13:47:03;34.40;23.50
21502;DHT22;27639;48.674;9.242;2022-07-18T13:49:29;34.50;23.40
21502;DHT22;27639;48.674;9.242;2022-07-18T13:51:54;34.60;23.30
21502;DHT22;27639;48.674;9.242;2022-07-18T13:54:20;34.60;23.40
21502;DHT22;27639;48.674;9.242;2022-07-18T13:56:46;34.60;23.30
21502;DHT22;27639;48.674;9.242;2022-07-18T13:59:12;34.50;23.00
21502;DHT22;27639;48.674;9.242;2022-07-18T14:01:38;34.40;23.20
21502;DHT22;27639;48.674;9.242;2022-07-18T14:04:04;34.40;23.50
21502;DHT22;27639;48.674;9.242;2022-07-18T14:06:29;34.50;23.70
21502;DHT22;27639;48.674;9.242;2022-07-18T14:08:55;34.40;23.60
21502;DHT22;27639;48.674;9.242;2022-07-18T14:11:21;34.30;23.60
21502;DHT22;27639;48.674;9.242;2022-07-18T14:13:46;34.30;23.60
21502;DHT22;27639;48.674;9.242;2022-07-18T14:16:13;34.40;24.00
21502;DHT22;27639;48.674;9.242;2022-07-18T14:18:39;34.50;23.80
21502;DHT22;27639;48.674;9.242;2022-07-18T14:21:04;34.60;23.60
21502;DHT22;27639;48.674;9.242;2022-07-18T14:23:30;34.60;23.10
21502;DHT22;27639;48.674;9.242;2022-07-18T14:25:56;34.60;22.90
21502;DHT22;27639;48.674;9.242;2022-07-18T14:28:21;34.60;22.90
21502;DHT22;27639;48.674;9.242;2022-07-18T14:30:47;34.60;23.10
21502;DHT22;27639;48.674;9.242;2022-07-18T14:33:12;34.70;23.00
21502;DHT22;27639;48.674;9.242;2022-07-18T14:35:38;34.70;23.60
21502;DHT22;27639;48.674;9.242;2022-07-18T14:38:04;34.70;23.00
21502;DHT22;27639;48.674;9.242;2022-07-18T14:40:30;34.70;22.90
21502;DHT22;27639;48.674;9.242;2022-07-18T14:42:55;34.70;22.90
21502;DHT22;27639;48.674;9.242;2022-07-18T14:45:21;34.70;23.00
21502;DHT22;27639;48.674;9.242;2022-07-18T14:47:47;34.70;22.70
21502;DHT22;27639;48.674;9.242;2022-07-18T14:50:13;34.70;23.00
21502;DHT22;27639;48.674;9.242;2022-07-18T14:52:39;34.80;22.90
21502;DHT22;27639;48.674;9.242;2022-07-18T14:55:05;34.70;22.60
21502;DHT22;27639;48.674;9.242;2022-07-18T14:57:31;34.80;22.70
21502;DHT22;27639;48.674;9.242;2022-07-18T14:59:57;34.80;22.70
21502;DHT22;27639;48.674;9.242;2022-07-18T15:02:23;34.70;22.70
21502;DHT22;27639;48.674;9.242;2022-07-18T15:04:49;34.80;23.10
21502;DHT22;27639;48.674;9.242;2022-07-18T15:07:14;34.80;22.90
21502;DHT22;27639;48.674;9.242;2022-07-18T15:09:40;34.80;22.50
21502;DHT22;27639;48.674;9.242;2022-07-18T15:12:06;34.70;22.90
21502;DHT22;27639;48.674;9.242;2022-07-18T15:14:33;34.60;22.90
21502;DHT22;27639;48.674;9.242;2022-07-18T15:16:59;34.60;23.10
21502;DHT22;27639;48.674;9.242;2022-07-18T15:19:24;34.60;23.00
21502;DHT22;27639;48.674;9.242;2022-07-18T15:21:50;34.50;22.90
21502;DHT22;27639;48.674;9.242;2022-07-18T15:24:16;34.40;23.10
21502;DHT22;27639;48.674;9.242;2022-07-18T15:26:41;34.50;23.40
21502;DHT22;27639;48.674;9.242;2022-07-18T15:29:07;34.50;23.10
21502;DHT22;27639;48.674;9.242;2022-07-18T15:31:33;34.50;23.00
21502;DHT22;27639;48.674;9.242;2022-07-18T15:33:59;34.60;23.20
21502;DHT22;27639;48.674;9.242;2022-07-18T15:36:24;34.60;23.20
21502;DHT22;27639;48.674;9.242;2022-07-18T15:38:50;34.60;23.30
21502;DHT22;27639;48.674;9.242;2022-07-18T15:41:15;34.60;23.30
21502;DHT22;27639;48.674;9.242;2022-07-18T15:43:45;34.60;23.40
21502;DHT22;27639;48.674;9.242;2022-07-18T15:46:12;34.60;23.20
21502;DHT22;27639;48.674;9.242;2022-07-18T15:48:42;34.60;23.30
21502;DHT22;27639;48.674;9.242;2022-07-18T15:51:08;34.60;22.90
21502;DHT22;27639;48.674;9.242;2022-07-18T15:53:33;34.60;22.70
21502;DHT22;27639;48.674;9.242;2022-07-18T15:55:59;34.60;22.90
21502;DHT22;27639;48.674;9.242;2022-07-18T15:58:24;34.60;22.90
21502;DHT22;27639;48.674;9.242;2022-07-18T16:00:50;34.60;22.90
21502;DHT22;27639;48.674;9.242;2022-07-18T16:03:16;34.60;23.00
21502;DHT22;27639;48.674;9.242;2022-07-18T16:05:42;34.50;22.90
21502;DHT22;27639;48.674;9.242;2022-07-18T16:08:07;34.60;22.90
21502;DHT22;27639;48.674;9.242;2022-07-18T16:10:33;34.60;23.50
21502;DHT22;27639;48.674;9.242;2022-07-18T16:12:58;34.60;23.00
21502;DHT22;27639;48.674;9.242;2022-07-18T16:15:24;34.60;23.00
21502;DHT22;27639;48.674;9.242;2022-07-18T16:17:50;34.60;23.00
21502;DHT22;27639;48.674;9.242;2022-07-18T16:20:16;34.60;23.00
21502;DHT22;27639;48.674;9.242;2022-07-18T16:22:42;34.60;23.10
21502;DHT22;27639;48.674;9.242;2022-07-18T16:25:09;34.50;23.00
21502;DHT22;27639;48.674;9.242;2022-07-18T16:27:34;34.60;23.40
21502;DHT22;27639;48.674;9.242;2022-07-18T16:30:00;34.60;23.50
21502;DHT22;27639;48.674;9.242;2022-07-18T16:32:26;34.60;23.50
21502;DHT22;27639;48.674;9.242;2022-07-18T16:34:52;34.60;23.40
21502;DHT22;27639;48.674;9.242;2022-07-18T16:37:17;34.60;23.20
21502;DHT22;27639;48.674;9.242;2022-07-18T16:39:43;34.60;23.20